sensor_id;sensor_type;location;lat;lon;timestamp;pressure;altitude;pressure_sealevel;temperature;humidity
61345;BME280;47216;42.656;23.232;2023-12-20T00:00:44;94234.56;;;1.55;75.63
61345;BME280;47216;42.656;23.232;2023-12-20T00:03:11;94240.59;;;1.47;75.65
61345;BME280;47216;42.656;23.232;2023-12-20T00:05:38;94225.38;;;1.46;75.98
61345;BME280;47216;42.656;23.232;2023-12-20T00:08:06;94223.41;;;1.48;75.84
61345;BME280;47216;42.656;23.232;2023-12-20T00:10:33;94225.63;;;1.51;75.98
61345;BME280;47216;42.656;23.232;2023-12-20T00:13:00;94215.34;;;1.51;76.14
61345;BME280;47216;42.656;23.232;2023-12-20T00:15:26;94214.00;;;1.55;75.35
61345;BME280;47216;42.656;23.232;2023-12-20T00:17:55;94214.00;;;1.55;75.58
61345;BME280;47216;42.656;23.232;2023-12-20T00:20:21;94215.81;;;1.61;75.65
61345;BME280;47216;42.656;23.232;2023-12-20T00:22:48;94203.34;;;1.58;75.03
61345;BME280;47216;42.656;23.232;2023-12-20T00:25:15;94194.09;;;1.42;75.28
61345;BME280;47216;42.656;23.232;2023-12-20T00:27:42;94200.03;;;1.43;74.98
61345;BME280;47216;42.656;23.232;2023-12-20T00:30:10;94191.81;;;1.33;75.40
61345;BME280;47216;42.656;23.232;2023-12-20T00:32:37;94186.44;;;1.28;75.84
61345;BME280;47216;42.656;23.232;2023-12-20T00:35:06;94178.75;;;1.28;75.61
61345;BME280;47216;42.656;23.232;2023-12-20T00:37:33;94175.91;;;1.22;75.96
61345;BME280;47216;42.656;23.232;2023-12-20T00:40:00;94169.19;;;1.21;75.94
61345;BME280;47216;42.656;23.232;2023-12-20T00:42:26;94167.59;;;1.20;76.50
61345;BME280;47216;42.656;23.232;2023-12-20T00:44:53;94163.66;;;1.24;75.99
61345;BME280;47216;42.656;23.232;2023-12-20T00:47:20;94159.44;;;1.17;76.48
61345;BME280;47216;42.656;23.232;2023-12-20T00:49:47;94166.31;;;1.31;75.99
61345;BME280;47216;42.656;23.232;2023-12-20T00:52:15;94176.66;;;1.38;76.27
61345;BME280;47216;42.656;23.232;2023-12-20T00:54:43;94167.63;;;1.42;75.59
61345;BME280;47216;42.656;23.232;2023-12-20T00:57:09;94164.66;;;1.45;75.65
61345;BME280;47216;42.656;23.232;2023-12-20T00:59:36;94170.44;;;1.47;75.52
61345;BME280;47216;42.656;23.232;2023-12-20T01:02:03;94156.41;;;1.50;75.03
61345;BME280;47216;42.656;23.232;2023-12-20T01:04:30;94157.34;;;1.42;75.21
61345;BME280;47216;42.656;23.232;2023-12-20T01:06:57;94153.13;;;1.34;75.24
61345;BME280;47216;42.656;23.232;2023-12-20T01:09:25;94149.47;;;1.43;74.74
61345;BME280;47216;42.656;23.232;2023-12-20T01:11:53;94145.41;;;1.34;75.05
61345;BME280;47216;42.656;23.232;2023-12-20T01:14:20;94150.28;;;1.29;74.88
61345;BME280;47216;42.656;23.232;2023-12-20T01:16:46;94148.03;;;1.19;75.63
61345;BME280;47216;42.656;23.232;2023-12-20T01:19:13;94143.31;;;1.23;75.16
61345;BME280;47216;42.656;23.232;2023-12-20T01:21:40;94145.16;;;1.29;75.46
61345;BME280;47216;42.656;23.232;2023-12-20T01:24:07;94130.28;;;1.24;75.49
61345;BME280;47216;42.656;23.232;2023-12-20T01:26:35;94127.53;;;1.26;75.38
61345;BME280;47216;42.656;23.232;2023-12-20T01:29:02;94126.44;;;1.14;75.88
61345;BME280;47216;42.656;23.232;2023-12-20T01:31:29;94120.31;;;1.15;75.93
61345;BME280;47216;42.656;23.232;2023-12-20T01:33:56;94119.41;;;1.22;75.83
61345;BME280;47216;42.656;23.232;2023-12-20T01:36:22;94119.84;;;1.26;75.40
61345;BME280;47216;42.656;23.232;2023-12-20T01:38:49;94104.59;;;1.24;75.67
61345;BME280;47216;42.656;23.232;2023-12-20T01:41:16;94101.56;;;1.14;75.53
61345;BME280;47216;42.656;23.232;2023-12-20T01:43:44;94104.19;;;1.21;75.44
61345;BME280;47216;42.656;23.232;2023-12-20T01:46:11;94095.31;;;1.23;75.07
61345;BME280;47216;42.656;23.232;2023-12-20T01:48:39;94094.63;;;1.15;75.41
61345;BME280;47216;42.656;23.232;2023-12-20T01:51:05;94100.56;;;1.15;75.28
61345;BME280;47216;42.656;23.232;2023-12-20T01:53:32;94086.53;;;1.11;75.53
61345;BME280;47216;42.656;23.232;2023-12-20T01:55:59;94083.56;;;1.14;75.24
61345;BME280;47216;42.656;23.232;2023-12-20T01:58:27;94083.56;;;1.14;75.33
61345;BME280;47216;42.656;23.232;2023-12-20T02:00:56;94082.03;;;1.20;75.05
61345;BME280;47216;42.656;23.232;2023-12-20T02:03:23;94068.53;;;1.11;75.07
61345;BME280;47216;42.656;23.232;2023-12-20T02:05:50;94077.09;;;1.18;75.48
61345;BME280;47216;42.656;23.232;2023-12-20T02:08:17;94080.53;;;1.25;75.32
61345;BME280;47216;42.656;23.232;2023-12-20T02:10:44;94081.00;;;1.36;74.99
61345;BME280;47216;42.656;23.232;2023-12-20T02:13:11;94077.47;;;1.37;74.67
61345;BME280;47216;42.656;23.232;2023-12-20T02:15:38;94067.44;;;1.20;74.32
61345;BME280;47216;42.656;23.232;2023-12-20T02:18:08;94075.31;;;1.19;74.10
61345;BME280;47216;42.656;23.232;2023-12-20T02:20:35;94065.91;;;1.04;74.54
61345;BME280;47216;42.656;23.232;2023-12-20T02:23:03;94061.13;;;1.01;74.66
61345;BME280;47216;42.656;23.232;2023-12-20T02:25:30;94058.00;;;1.06;74.52
61345;BME280;47216;42.656;23.232;2023-12-20T02:27:57;94058.44;;;1.10;74.22
61345;BME280;47216;42.656;23.232;2023-12-20T02:30:23;94048.50;;;1.00;74.71
61345;BME280;47216;42.656;23.232;2023-12-20T02:32:51;94049.44;;;0.99;74.60
61345;BME280;47216;42.656;23.232;2023-12-20T02:35:19;94042.97;;;1.03;74.52
61345;BME280;47216;42.656;23.232;2023-12-20T02:37:45;94039.44;;;1.04;74.34
61345;BME280;47216;42.656;23.232;2023-12-20T02:40:13;94041.41;;;1.02;74.32
61345;BME280;47216;42.656;23.232;2023-12-20T02:42:40;94045.91;;;1.00;74.07
61345;BME280;47216;42.656;23.232;2023-12-20T02:45:08;94037.72;;;0.90;74.05
61345;BME280;47216;42.656;23.232;2023-12-20T02:47:34;94041.69;;;0.92;74.16
61345;BME280;47216;42.656;23.232;2023-12-20T02:50:01;94045.78;;;0.87;74.77
61345;BME280;47216;42.656;23.232;2023-12-20T02:52:29;94034.66;;;0.79;74.35
61345;BME280;47216;42.656;23.232;2023-12-20T02:54:55;94034.16;;;0.69;74.89
61345;BME280;47216;42.656;23.232;2023-12-20T02:57:23;94036.31;;;0.51;75.35
61345;BME280;47216;42.656;23.232;2023-12-20T02:59:50;94033.00;;;0.35;75.86
61345;BME280;47216;42.656;23.232;2023-12-20T03:02:16;94039.91;;;0.35;75.94
61345;BME280;47216;42.656;23.232;2023-12-20T03:04:43;94031.41;;;0.34;76.60
61345;BME280;47216;42.656;23.232;2023-12-20T03:07:09;94035.81;;;0.40;76.71
61345;BME280;47216;42.656;23.232;2023-12-20T03:09:37;94027.13;;;0.41;77.05
61345;BME280;47216;42.656;23.232;2023-12-20T03:12:04;94031.56;;;0.48;76.63
61345;BME280;47216;42.656;23.232;2023-12-20T03:14:32;94032.25;;;0.56;76.65
61345;BME280;47216;42.656;23.232;2023-12-20T03:16:59;94026.94;;;0.58;76.36
61345;BME280;47216;42.656;23.232;2023-12-20T03:19:26;94027.00;;;0.65;76.12
61345;BME280;47216;42.656;23.232;2023-12-20T03:21:52;94021.06;;;0.64;75.56
61345;BME280;47216;42.656;23.232;2023-12-20T03:24:19;94018.25;;;0.59;75.54
61345;BME280;47216;42.656;23.232;2023-12-20T03:26:46;94015.09;;;0.57;75.94
61345;BME280;47216;42.656;23.232;2023-12-20T03:29:13;94013.06;;;0.52;76.37
61345;BME280;47216;42.656;23.232;2023-12-20T03:31:41;94013.22;;;0.66;76.48
61345;BME280;47216;42.656;23.232;2023-12-20T03:34:08;94013.56;;;0.62;76.71
61345;BME280;47216;42.656;23.232;2023-12-20T03:36:34;94005.25;;;0.60;76.39
61345;BME280;47216;42.656;23.232;2023-12-20T03:39:01;94001.78;;;0.68;75.67
61345;BME280;47216;42.656;23.232;2023-12-20T03:41:28;94003.34;;;0.69;75.69
61345;BME280;47216;42.656;23.232;2023-12-20T03:43:55;94009.72;;;0.73;75.70
61345;BME280;47216;42.656;23.232;2023-12-20T03:46:21;94011.66;;;0.71;75.61
61345;BME280;47216;42.656;23.232;2023-12-20T03:48:50;94009.22;;;0.63;75.46
61345;BME280;47216;42.656;23.232;2023-12-20T03:51:16;94011.56;;;0.58;75.53
61345;BME280;47216;42.656;23.232;2023-12-20T03:53:43;94011.03;;;0.48;75.23
61345;BME280;47216;42.656;23.232;2023-12-20T03:56:10;94011.41;;;0.45;74.80
61345;BME280;47216;42.656;23.232;2023-12-20T03:58:37;94004.00;;;0.35;75.05
61345;BME280;47216;42.656;23.232;2023-12-20T04:01:09;94005.63;;;0.21;75.54
61345;BME280;47216;42.656;23.232;2023-12-20T04:03:38;93998.47;;;0.02;76.19
61345;BME280;47216;42.656;23.232;2023-12-20T04:06:07;93991.66;;;0.09;76.89
61345;BME280;47216;42.656;23.232;2023-12-20T04:08:33;93988.03;;;0.18;76.71
61345;BME280;47216;42.656;23.232;2023-12-20T04:11:00;93979.38;;;0.19;76.69
61345;BME280;47216;42.656;23.232;2023-12-20T04:13:27;93981.19;;;0.25;76.41
61345;BME280;47216;42.656;23.232;2023-12-20T04:15:54;93980.22;;;0.26;76.18
61345;BME280;47216;42.656;23.232;2023-12-20T04:18:20;93973.16;;;0.28;76.63
61345;BME280;47216;42.656;23.232;2023-12-20T04:20:49;93976.06;;;0.25;76.06
61345;BME280;47216;42.656;23.232;2023-12-20T04:23:18;93969.00;;;0.27;76.17
61345;BME280;47216;42.656;23.232;2023-12-20T04:25:45;93974.97;;;0.34;76.27
61345;BME280;47216;42.656;23.232;2023-12-20T04:28:12;93971.88;;;0.39;76.12
61345;BME280;47216;42.656;23.232;2023-12-20T04:30:39;93970.84;;;0.55;76.18
61345;BME280;47216;42.656;23.232;2023-12-20T04:33:05;93963.53;;;0.52;75.52
61345;BME280;47216;42.656;23.232;2023-12-20T04:35:32;93954.78;;;0.46;74.91
61345;BME280;47216;42.656;23.232;2023-12-20T04:37:59;93952.28;;;0.53;74.83
61345;BME280;47216;42.656;23.232;2023-12-20T04:40:27;93954.84;;;0.53;75.16
61345;BME280;47216;42.656;23.232;2023-12-20T04:42:54;93957.47;;;0.59;74.80
61345;BME280;47216;42.656;23.232;2023-12-20T04:45:21;93957.91;;;0.63;75.10
61345;BME280;47216;42.656;23.232;2023-12-20T04:47:49;93962.69;;;0.66;75.05
61345;BME280;47216;42.656;23.232;2023-12-20T04:50:15;93955.34;;;0.63;74.56
61345;BME280;47216;42.656;23.232;2023-12-20T04:52:42;93956.44;;;0.75;74.47
61345;BME280;47216;42.656;23.232;2023-12-20T04:55:09;93951.69;;;0.72;74.20
61345;BME280;47216;42.656;23.232;2023-12-20T04:57:38;93952.34;;;0.59;73.76
61345;BME280;47216;42.656;23.232;2023-12-20T05:00:06;93946.88;;;0.62;73.57
61345;BME280;47216;42.656;23.232;2023-12-20T05:02:33;93947.03;;;0.61;73.89
61345;BME280;47216;42.656;23.232;2023-12-20T05:05:00;93943.97;;;0.51;74.01
61345;BME280;47216;42.656;23.232;2023-12-20T05:07:28;93944.97;;;0.50;74.23
61345;BME280;47216;42.656;23.232;2023-12-20T05:09:54;93940.69;;;0.35;74.05
61345;BME280;47216;42.656;23.232;2023-12-20T05:12:21;93941.03;;;0.32;74.20
61345;BME280;47216;42.656;23.232;2023-12-20T05:14:52;93937.00;;;0.23;74.62
61345;BME280;47216;42.656;23.232;2023-12-20T05:17:19;93931.16;;;0.29;74.77
61345;BME280;47216;42.656;23.232;2023-12-20T05:19:45;93926.47;;;0.33;74.34
61345;BME280;47216;42.656;23.232;2023-12-20T05:22:12;93932.00;;;0.36;75.01
61345;BME280;47216;42.656;23.232;2023-12-20T05:24:39;93928.84;;;0.56;74.33
61345;BME280;47216;42.656;23.232;2023-12-20T05:27:06;93930.50;;;0.63;73.95
61345;BME280;47216;42.656;23.232;2023-12-20T05:29:33;93923.63;;;0.71;74.06
61345;BME280;47216;42.656;23.232;2023-12-20T05:32:01;93918.09;;;0.67;73.76
61345;BME280;47216;42.656;23.232;2023-12-20T05:34:30;93921.25;;;0.69;73.41
61345;BME280;47216;42.656;23.232;2023-12-20T05:36:57;93912.34;;;0.65;73.24
61345;BME280;47216;42.656;23.232;2023-12-20T05:39:24;93913.88;;;0.59;72.54
61345;BME280;47216;42.656;23.232;2023-12-20T05:41:51;93910.69;;;0.57;72.92
61345;BME280;47216;42.656;23.232;2023-12-20T05:44:18;93904.53;;;0.52;73.12
61345;BME280;47216;42.656;23.232;2023-12-20T05:46:45;93915.53;;;0.46;73.07
61345;BME280;47216;42.656;23.232;2023-12-20T05:49:13;93912.84;;;0.54;73.24
61345;BME280;47216;42.656;23.232;2023-12-20T05:51:40;93912.28;;;0.58;72.99
61345;BME280;47216;42.656;23.232;2023-12-20T05:54:07;93912.53;;;0.63;72.79
61345;BME280;47216;42.656;23.232;2023-12-20T05:56:34;93904.66;;;0.65;72.63
61345;BME280;47216;42.656;23.232;2023-12-20T05:59:01;93900.72;;;0.69;72.71
61345;BME280;47216;42.656;23.232;2023-12-20T06:01:27;93897.50;;;0.60;72.52
61345;BME280;47216;42.656;23.232;2023-12-20T06:03:54;93893.84;;;0.48;72.72
61345;BME280;47216;42.656;23.232;2023-12-20T06:06:23;93898.78;;;0.28;72.92
61345;BME280;47216;42.656;23.232;2023-12-20T06:08:50;93895.31;;;0.36;72.92
61345;BME280;47216;42.656;23.232;2023-12-20T06:11:17;93903.31;;;0.26;73.05
61345;BME280;47216;42.656;23.232;2023-12-20T06:13:43;93895.19;;;0.23;73.13
61345;BME280;47216;42.656;23.232;2023-12-20T06:16:10;93901.09;;;0.23;72.65
61345;BME280;47216;42.656;23.232;2023-12-20T06:18:37;93906.53;;;0.13;72.44
61345;BME280;47216;42.656;23.232;2023-12-20T06:21:04;93903.63;;;0.02;72.86
61345;BME280;47216;42.656;23.232;2023-12-20T06:23:34;93903.28;;;0.05;72.28
61345;BME280;47216;42.656;23.232;2023-12-20T06:26:00;93908.34;;;-0.02;73.32
61345;BME280;47216;42.656;23.232;2023-12-20T06:28:27;93901.19;;;-0.07;72.89
61345;BME280;47216;42.656;23.232;2023-12-20T06:30:54;93903.28;;;0.05;72.62
61345;BME280;47216;42.656;23.232;2023-12-20T06:33:22;93903.75;;;-0.07;72.77
61345;BME280;47216;42.656;23.232;2023-12-20T06:35:49;93902.63;;;-0.19;72.88
61345;BME280;47216;42.656;23.232;2023-12-20T06:38:17;93897.94;;;-0.15;72.84
61345;BME280;47216;42.656;23.232;2023-12-20T06:40:46;93889.47;;;-0.16;73.07
61345;BME280;47216;42.656;23.232;2023-12-20T06:43:13;93893.44;;;-0.28;72.52
61345;BME280;47216;42.656;23.232;2023-12-20T06:45:39;93887.53;;;-0.14;73.12
61345;BME280;47216;42.656;23.232;2023-12-20T06:48:07;93891.56;;;-0.05;72.97
61345;BME280;47216;42.656;23.232;2023-12-20T06:50:34;93893.69;;;-0.08;73.33
61345;BME280;47216;42.656;23.232;2023-12-20T06:53:05;93886.69;;;0.01;72.69
61345;BME280;47216;42.656;23.232;2023-12-20T06:55:32;93883.38;;;0.07;72.74
61345;BME280;47216;42.656;23.232;2023-12-20T06:58:01;93882.53;;;-0.01;72.23
61345;BME280;47216;42.656;23.232;2023-12-20T07:00:28;93881.03;;;-0.10;72.03
61345;BME280;47216;42.656;23.232;2023-12-20T07:02:54;93880.81;;;0.07;72.40
61345;BME280;47216;42.656;23.232;2023-12-20T07:05:21;93872.88;;;0.02;72.37
61345;BME280;47216;42.656;23.232;2023-12-20T07:07:48;93874.66;;;0.01;72.43
61345;BME280;47216;42.656;23.232;2023-12-20T07:10:15;93871.09;;;0.02;72.41
61345;BME280;47216;42.656;23.232;2023-12-20T07:12:42;93860.44;;;-0.02;72.81
61345;BME280;47216;42.656;23.232;2023-12-20T07:15:11;93853.47;;;0.14;72.63
61345;BME280;47216;42.656;23.232;2023-12-20T07:17:38;93857.63;;;0.15;72.18
61345;BME280;47216;42.656;23.232;2023-12-20T07:20:06;93857.19;;;0.11;72.16
61345;BME280;47216;42.656;23.232;2023-12-20T07:22:36;93854.84;;;0.10;72.26
61345;BME280;47216;42.656;23.232;2023-12-20T07:25:03;93855.69;;;0.17;72.18
61345;BME280;47216;42.656;23.232;2023-12-20T07:27:30;93851.78;;;0.21;72.17
61345;BME280;47216;42.656;23.232;2023-12-20T07:29:56;93844.34;;;0.26;72.78
61345;BME280;47216;42.656;23.232;2023-12-20T07:32:25;93848.03;;;0.45;72.61
61345;BME280;47216;42.656;23.232;2023-12-20T07:34:51;93852.25;;;0.53;72.42
61345;BME280;47216;42.656;23.232;2023-12-20T07:37:19;93845.75;;;0.57;72.71
61345;BME280;47216;42.656;23.232;2023-12-20T07:39:46;93848.66;;;0.75;72.48
61345;BME280;47216;42.656;23.232;2023-12-20T07:42:13;93846.38;;;0.87;72.45
61345;BME280;47216;42.656;23.232;2023-12-20T07:44:40;93855.50;;;0.96;72.55
61345;BME280;47216;42.656;23.232;2023-12-20T07:47:06;93852.59;;;1.06;72.68
61345;BME280;47216;42.656;23.232;2023-12-20T07:49:35;93850.50;;;1.16;72.51
61345;BME280;47216;42.656;23.232;2023-12-20T07:52:01;93858.03;;;1.24;72.56
61345;BME280;47216;42.656;23.232;2023-12-20T07:54:28;93854.16;;;1.35;72.58
61345;BME280;47216;42.656;23.232;2023-12-20T07:56:55;93847.09;;;1.44;72.54
61345;BME280;47216;42.656;23.232;2023-12-20T07:59:22;93842.78;;;1.51;72.63
61345;BME280;47216;42.656;23.232;2023-12-20T08:01:48;93838.06;;;1.61;72.41
61345;BME280;47216;42.656;23.232;2023-12-20T08:04:15;93836.56;;;1.80;71.94
61345;BME280;47216;42.656;23.232;2023-12-20T08:06:43;93834.59;;;1.89;71.72
61345;BME280;47216;42.656;23.232;2023-12-20T08:09:10;93837.41;;;2.07;71.49
61345;BME280;47216;42.656;23.232;2023-12-20T08:11:37;93826.94;;;2.09;71.02
61345;BME280;47216;42.656;23.232;2023-12-20T08:14:04;93828.34;;;2.25;71.62
61345;BME280;47216;42.656;23.232;2023-12-20T08:16:30;93825.97;;;2.43;70.44
61345;BME280;47216;42.656;23.232;2023-12-20T08:18:57;93827.97;;;2.55;70.55
61345;BME280;47216;42.656;23.232;2023-12-20T08:21:24;93818.03;;;2.51;71.24
61345;BME280;47216;42.656;23.232;2023-12-20T08:23:52;93809.94;;;2.55;70.46
61345;BME280;47216;42.656;23.232;2023-12-20T08:26:19;93808.75;;;2.64;70.67
61345;BME280;47216;42.656;23.232;2023-12-20T08:28:48;93808.53;;;2.72;70.21
61345;BME280;47216;42.656;23.232;2023-12-20T08:31:15;93809.72;;;2.83;69.36
61345;BME280;47216;42.656;23.232;2023-12-20T08:33:44;93805.16;;;2.91;69.56
61345;BME280;47216;42.656;23.232;2023-12-20T08:36:11;93797.41;;;2.98;69.58
61345;BME280;47216;42.656;23.232;2023-12-20T08:38:38;93798.59;;;2.95;69.05
61345;BME280;47216;42.656;23.232;2023-12-20T08:41:06;93795.44;;;2.93;70.13
61345;BME280;47216;42.656;23.232;2023-12-20T08:43:34;93793.66;;;3.01;69.48
61345;BME280;47216;42.656;23.232;2023-12-20T08:46:01;93788.88;;;2.98;70.07
61345;BME280;47216;42.656;23.232;2023-12-20T08:48:28;93783.56;;;2.92;70.65
61345;BME280;47216;42.656;23.232;2023-12-20T08:50:55;93780.00;;;2.93;70.54
61345;BME280;47216;42.656;23.232;2023-12-20T08:53:21;93784.72;;;2.97;70.87
61345;BME280;47216;42.656;23.232;2023-12-20T08:55:48;93773.66;;;2.89;70.78
61345;BME280;47216;42.656;23.232;2023-12-20T08:58:16;93781.56;;;2.88;70.68
61345;BME280;47216;42.656;23.232;2023-12-20T09:00:43;93775.84;;;2.86;70.93
61345;BME280;47216;42.656;23.232;2023-12-20T09:03:10;93775.66;;;2.81;71.79
61345;BME280;47216;42.656;23.232;2023-12-20T09:05:37;93763.56;;;2.81;72.27
61345;BME280;47216;42.656;23.232;2023-12-20T09:08:04;93758.22;;;2.89;72.11
61345;BME280;47216;42.656;23.232;2023-12-20T09:10:33;93739.41;;;2.89;72.32
61345;BME280;47216;42.656;23.232;2023-12-20T09:13:00;93727.28;;;3.03;72.35
61345;BME280;47216;42.656;23.232;2023-12-20T09:15:28;93727.63;;;3.13;71.90
61345;BME280;47216;42.656;23.232;2023-12-20T09:17:55;93720.81;;;3.25;70.83
61345;BME280;47216;42.656;23.232;2023-12-20T09:20:22;93713.31;;;3.24;70.51
61345;BME280;47216;42.656;23.232;2023-12-20T09:22:49;93701.81;;;3.26;70.44
61345;BME280;47216;42.656;23.232;2023-12-20T09:25:16;93701.38;;;3.29;70.91
61345;BME280;47216;42.656;23.232;2023-12-20T09:27:43;93698.59;;;3.38;70.77
61345;BME280;47216;42.656;23.232;2023-12-20T09:30:10;93692.19;;;3.47;70.50
61345;BME280;47216;42.656;23.232;2023-12-20T09:32:38;93683.16;;;3.31;71.31
61345;BME280;47216;42.656;23.232;2023-12-20T09:35:05;93675.63;;;3.29;70.94
61345;BME280;47216;42.656;23.232;2023-12-20T09:37:34;93675.41;;;3.38;70.93
61345;BME280;47216;42.656;23.232;2023-12-20T09:40:01;93681.88;;;3.47;70.74
61345;BME280;47216;42.656;23.232;2023-12-20T09:42:36;93671.22;;;3.36;71.92
61345;BME280;47216;42.656;23.232;2023-12-20T09:45:08;93663.84;;;3.47;71.48
61345;BME280;47216;42.656;23.232;2023-12-20T09:47:35;93646.63;;;3.41;71.73
61345;BME280;47216;42.656;23.232;2023-12-20T09:50:05;93659.63;;;3.52;71.27
61345;BME280;47216;42.656;23.232;2023-12-20T09:52:32;93646.91;;;3.57;72.02
61345;BME280;47216;42.656;23.232;2023-12-20T09:55:01;93650.56;;;3.43;71.20
61345;BME280;47216;42.656;23.232;2023-12-20T09:57:31;93639.88;;;3.40;71.66
61345;BME280;47216;42.656;23.232;2023-12-20T09:59:58;93629.22;;;3.36;71.73
61345;BME280;47216;42.656;23.232;2023-12-20T10:02:25;93640.28;;;3.36;71.89
61345;BME280;47216;42.656;23.232;2023-12-20T10:04:54;93637.47;;;3.45;72.43
61345;BME280;47216;42.656;23.232;2023-12-20T10:07:22;93644.19;;;3.46;71.83
61345;BME280;47216;42.656;23.232;2023-12-20T10:09:51;93633.75;;;3.41;71.84
61345;BME280;47216;42.656;23.232;2023-12-20T10:12:20;93636.03;;;3.49;72.35
61345;BME280;47216;42.656;23.232;2023-12-20T10:14:47;93633.38;;;3.62;72.07
61345;BME280;47216;42.656;23.232;2023-12-20T10:17:14;93628.22;;;3.62;72.07
61345;BME280;47216;42.656;23.232;2023-12-20T10:19:44;93619.91;;;3.85;71.66
61345;BME280;47216;42.656;23.232;2023-12-20T10:22:11;93612.97;;;3.86;71.68
61345;BME280;47216;42.656;23.232;2023-12-20T10:24:39;93617.38;;;3.78;71.75
61345;BME280;47216;42.656;23.232;2023-12-20T10:27:08;93599.34;;;3.78;72.60
61345;BME280;47216;42.656;23.232;2023-12-20T10:29:36;93603.41;;;3.93;71.62
61345;BME280;47216;42.656;23.232;2023-12-20T10:32:24;93586.03;;;3.82;70.95
61345;BME280;47216;42.656;23.232;2023-12-20T10:34:51;93578.03;;;3.90;72.28
61345;BME280;47216;42.656;23.232;2023-12-20T10:37:18;93578.03;;;3.90;72.04
61345;BME280;47216;42.656;23.232;2023-12-20T10:39:49;93571.72;;;4.04;71.93
61345;BME280;47216;42.656;23.232;2023-12-20T10:42:20;93572.47;;;4.11;70.98
61345;BME280;47216;42.656;23.232;2023-12-20T10:44:48;93566.25;;;4.19;70.72
61345;BME280;47216;42.656;23.232;2023-12-20T10:47:16;93564.31;;;4.33;70.29
61345;BME280;47216;42.656;23.232;2023-12-20T10:49:46;93552.38;;;4.32;71.17
61345;BME280;47216;42.656;23.232;2023-12-20T10:52:13;93554.63;;;4.28;71.31
61345;BME280;47216;42.656;23.232;2023-12-20T10:54:40;93556.69;;;4.38;70.89
61345;BME280;47216;42.656;23.232;2023-12-20T10:57:08;93549.16;;;4.55;70.76
61345;BME280;47216;42.656;23.232;2023-12-20T10:59:37;93540.63;;;4.54;70.09
61345;BME280;47216;42.656;23.232;2023-12-20T11:02:04;93537.09;;;4.67;70.28
61345;BME280;47216;42.656;23.232;2023-12-20T11:04:37;93529.81;;;4.76;70.05
61345;BME280;47216;42.656;23.232;2023-12-20T11:07:15;93524.31;;;4.72;69.84
61345;BME280;47216;42.656;23.232;2023-12-20T11:09:52;93522.63;;;4.78;69.36
61345;BME280;47216;42.656;23.232;2023-12-20T11:12:32;93531.34;;;4.95;68.92
61345;BME280;47216;42.656;23.232;2023-12-20T11:15:02;93519.00;;;4.97;69.06
61345;BME280;47216;42.656;23.232;2023-12-20T11:17:31;93523.16;;;4.98;68.94
61345;BME280;47216;42.656;23.232;2023-12-20T11:20:09;93517.44;;;5.08;68.91
61345;BME280;47216;42.656;23.232;2023-12-20T11:22:52;93504.31;;;5.10;68.18
61345;BME280;47216;42.656;23.232;2023-12-20T11:25:20;93498.38;;;5.21;67.43
61345;BME280;47216;42.656;23.232;2023-12-20T11:28:09;93494.78;;;5.22;67.73
61345;BME280;47216;42.656;23.232;2023-12-20T11:30:45;93489.38;;;5.23;68.13
61345;BME280;47216;42.656;23.232;2023-12-20T11:33:13;93475.91;;;5.21;67.85
61345;BME280;47216;42.656;23.232;2023-12-20T11:35:40;93477.81;;;5.26;68.17
61345;BME280;47216;42.656;23.232;2023-12-20T11:38:09;93475.13;;;5.21;67.72
61345;BME280;47216;42.656;23.232;2023-12-20T11:40:38;93456.25;;;5.32;67.49
61345;BME280;47216;42.656;23.232;2023-12-20T11:43:11;93459.97;;;5.36;67.96
61345;BME280;47216;42.656;23.232;2023-12-20T11:45:37;93457.38;;;5.36;68.13
61345;BME280;47216;42.656;23.232;2023-12-20T11:48:17;93450.16;;;5.38;68.13
61345;BME280;47216;42.656;23.232;2023-12-20T11:50:51;93445.22;;;5.48;67.43
61345;BME280;47216;42.656;23.232;2023-12-20T11:53:29;93443.09;;;5.57;67.38
61345;BME280;47216;42.656;23.232;2023-12-20T11:55:58;93435.75;;;5.66;67.06
61345;BME280;47216;42.656;23.232;2023-12-20T11:58:31;93432.97;;;5.56;68.01
61345;BME280;47216;42.656;23.232;2023-12-20T12:01:15;93423.84;;;5.65;67.81
61345;BME280;47216;42.656;23.232;2023-12-20T12:04:11;93415.97;;;5.72;67.67
61345;BME280;47216;42.656;23.232;2023-12-20T12:06:52;93397.75;;;5.78;67.41
61345;BME280;47216;42.656;23.232;2023-12-20T12:12:14;93391.88;;;5.95;66.99
61345;BME280;47216;42.656;23.232;2023-12-20T12:18:18;93390.81;;;6.07;66.41
61345;BME280;47216;42.656;23.232;2023-12-20T12:20:48;93384.72;;;6.14;66.66
61345;BME280;47216;42.656;23.232;2023-12-20T12:23:22;93378.78;;;6.13;66.58
61345;BME280;47216;42.656;23.232;2023-12-20T12:25:52;93374.28;;;6.08;66.52
61345;BME280;47216;42.656;23.232;2023-12-20T12:28:34;93371.47;;;6.10;66.63
61345;BME280;47216;42.656;23.232;2023-12-20T12:31:12;93374.72;;;6.17;67.17
61345;BME280;47216;42.656;23.232;2023-12-20T12:34:36;93372.22;;;6.22;66.33
61345;BME280;47216;42.656;23.232;2023-12-20T12:37:26;93380.06;;;6.27;66.26
61345;BME280;47216;42.656;23.232;2023-12-20T12:40:14;93384.59;;;6.20;66.51
61345;BME280;47216;42.656;23.232;2023-12-20T12:42:45;93375.84;;;6.09;65.82
61345;BME280;47216;42.656;23.232;2023-12-20T12:45:17;93381.28;;;6.08;65.87
61345;BME280;47216;42.656;23.232;2023-12-20T12:48:05;93373.81;;;6.12;66.09
61345;BME280;47216;42.656;23.232;2023-12-20T12:50:44;93372.81;;;6.13;66.44
61345;BME280;47216;42.656;23.232;2023-12-20T12:53:36;93379.88;;;6.17;66.21
61345;BME280;47216;42.656;23.232;2023-12-20T12:56:07;93377.84;;;6.19;65.95
61345;BME280;47216;42.656;23.232;2023-12-20T12:58:34;93369.63;;;6.22;65.83
61345;BME280;47216;42.656;23.232;2023-12-20T13:01:01;93362.06;;;6.21;65.79
61345;BME280;47216;42.656;23.232;2023-12-20T13:03:28;93363.31;;;6.18;66.11
61345;BME280;47216;42.656;23.232;2023-12-20T13:06:00;93369.28;;;6.19;65.94
61345;BME280;47216;42.656;23.232;2023-12-20T13:08:38;93369.53;;;6.17;66.06
61345;BME280;47216;42.656;23.232;2023-12-20T13:11:21;93366.47;;;6.20;65.67
61345;BME280;47216;42.656;23.232;2023-12-20T13:13:50;93363.88;;;6.20;65.77